Time;durP1;ratioP1;P1;durP2;ratioP2;P2;SDS_P1;SDS_P2;PMS_P1;PMS_P2;Temp;Humidity;BMP_temperature;BMP_pressure;BME280_temperature;BME280_humidity;BME280_pressure;Samples;Min_cycle;Max_cycle;Signal;HPM_P1;HPM_P2
2022/02/11 00:00:53;;;;;;;54.55;48.90;;;;;;;;;;4975908;28;20023;-80
2022/02/11 00:08:27;;;;;;;54.15;48.72;;;;;;;;;;4968816;28;20051;-80
2022/02/11 00:10:52;;;;;;;54.10;48.73;;;;;;;;;;4975573;28;20130;-80
2022/02/11 00:13:18;;;;;;;53.63;48.40;;;;;;;;;;4973110;28;20023;-80
2022/02/11 00:15:44;;;;;;;61.07;51.30;;;;;;;;;;4965575;28;20020;-79
2022/02/11 00:18:10;;;;;;;53.88;48.10;;;;;;;;;;4965788;28;20078;-77
2022/02/11 00:20:36;;;;;;;53.00;47.47;;;;;;;;;;4971836;28;20027;-80
2022/02/11 00:23:03;;;;;;;51.92;47.03;;;;;;;;;;4966697;28;20027;-79
2022/02/11 00:25:28;;;;;;;54.78;49.08;;;;;;;;;;4965126;28;22334;-78
2022/02/11 00:36:02;;;;;;;55.25;49.30;;;;;;;;;;4949228;28;20039;-79
2022/02/11 01:03:18;;;;;;;55.63;49.72;;;;;;;;;;4968350;29;20038;-80
2022/02/11 01:05:35;;;;;;;55.25;49.25;;;;;;;;;;4965259;28;20061;-81
2022/02/11 01:08:00;;;;;;;59.47;50.57;;;;;;;;;;4974429;28;20019;-81
2022/02/11 01:10:26;;;;;;;53.43;47.90;;;;;;;;;;4975412;28;20019;-80
2022/02/11 01:12:51;;;;;;;54.90;49.03;;;;;;;;;;4967957;28;20043;-79
2022/02/11 01:15:16;;;;;;;57.03;50.83;;;;;;;;;;4968292;28;20043;-81
2022/02/11 01:17:47;;;;;;;53.07;47.70;;;;;;;;;;4967933;28;20038;-80
2022/02/11 01:30:50;;;;;;;53.00;47.63;;;;;;;;;;4976791;28;20019;-82
2022/02/11 01:39:18;;;;;;;54.15;48.17;;;;;;;;;;4962222;28;20034;-82
2022/02/11 01:47:06;;;;;;;54.30;48.35;;;;;;;;;;4961030;28;20023;-82
2022/02/11 01:52:14;;;;;;;53.88;48.35;;;;;;;;;;4962406;28;20020;-82
2022/02/11 01:55:40;;;;;;;56.45;49.35;;;;;;;;;;4957518;29;20038;-81
2022/02/11 02:05:57;;;;;;;59.78;50.35;;;;;;;;;;4941446;28;20031;-81
2022/02/11 02:11:32;;;;;;;53.88;48.35;;;;;;;;;;4967492;28;20034;-81
2022/02/11 02:14:46;;;;;;;54.00;48.78;;;;;;;;;;4961404;29;20038;-81
2022/02/11 02:22:21;;;;;;;54.83;49.07;;;;;;;;;;4974332;28;20053;-81
2022/02/11 02:28:32;;;;;;;54.93;49.23;;;;;;;;;;4962532;28;20023;-81
2022/02/11 02:31:19;;;;;;;54.38;48.55;;;;;;;;;;4951301;28;20038;-80
2022/02/11 02:36:20;;;;;;;59.72;50.78;;;;;;;;;;4977262;28;20070;-81
2022/02/11 02:39:13;;;;;;;54.33;48.20;;;;;;;;;;4968637;28;20055;-81
2022/02/11 03:00:38;;;;;;;53.33;47.78;;;;;;;;;;4970373;28;20031;-81
2022/02/11 03:49:22;;;;;;;51.60;46.90;;;;;;;;;;4962348;28;20061;-83
2022/02/11 04:56:36;;;;;;;56.63;50.55;;;;;;;;;;4969166;28;24373;-79
2022/02/11 05:01:45;;;;;;;53.92;48.58;;;;;;;;;;4954792;29;20065;-79
2022/02/11 05:04:10;;;;;;;52.77;47.80;;;;;;;;;;4950117;28;20035;-78
2022/02/11 05:06:36;;;;;;;68.10;50.93;;;;;;;;;;4944453;28;20046;-78
2022/02/11 05:09:02;;;;;;;56.73;50.90;;;;;;;;;;4962507;28;20027;-79
2022/02/11 05:11:27;;;;;;;52.90;47.95;;;;;;;;;;4959197;28;20046;-78
2022/02/11 05:13:52;;;;;;;61.47;48.70;;;;;;;;;;4970630;28;20502;-78
2022/02/11 05:16:17;;;;;;;61.17;53.80;;;;;;;;;;4960666;28;20054;-76
2022/02/11 05:18:43;;;;;;;54.43;49.03;;;;;;;;;;4963181;28;20089;-77
2022/02/11 05:21:08;;;;;;;54.33;48.83;;;;;;;;;;4958913;28;20027;-77
2022/02/11 05:23:33;;;;;;;55.53;49.80;;;;;;;;;;4959320;28;20058;-78
2022/02/11 05:25:58;;;;;;;55.37;49.80;;;;;;;;;;4972669;28;20027;-82
2022/02/11 05:28:24;;;;;;;54.90;49.13;;;;;;;;;;4958810;28;20023;-77
2022/02/11 05:30:49;;;;;;;53.23;48.17;;;;;;;;;;4970349;28;20118;-81
2022/02/11 05:33:15;;;;;;;54.50;49.03;;;;;;;;;;4998407;28;20050;-83
2022/02/11 05:35:41;;;;;;;53.85;48.83;;;;;;;;;;4963130;29;20019;-78
2022/02/11 05:38:06;;;;;;;56.20;50.13;;;;;;;;;;4956288;28;20027;-77
2022/02/11 05:40:31;;;;;;;54.00;48.80;;;;;;;;;;4960816;28;20057;-78
2022/02/11 05:42:57;;;;;;;57.47;49.40;;;;;;;;;;4960677;28;20031;-79
2022/02/11 05:45:22;;;;;;;55.53;50.03;;;;;;;;;;4958961;29;20106;-81
2022/02/11 05:47:47;;;;;;;56.33;49.93;;;;;;;;;;4953174;28;20035;-79
2022/02/11 05:50:12;;;;;;;62.23;51.87;;;;;;;;;;4959206;28;20046;-79
2022/02/11 05:52:38;;;;;;;57.30;50.03;;;;;;;;;;4958021;28;20508;-79
2022/02/11 05:55:04;;;;;;;54.73;49.17;;;;;;;;;;4976426;28;20107;-79
2022/02/11 05:57:29;;;;;;;53.22;48.22;;;;;;;;;;4959474;29;20023;-77
2022/02/11 05:59:55;;;;;;;56.47;50.40;;;;;;;;;;4977938;28;20099;-77
2022/02/11 06:02:21;;;;;;;54.30;48.80;;;;;;;;;;4960561;28;20023;-76
2022/02/11 06:04:46;;;;;;;54.72;49.45;;;;;;;;;;4960935;29;20027;-78
2022/02/11 06:07:11;;;;;;;58.17;49.70;;;;;;;;;;4956896;28;20031;-78
2022/02/11 06:09:37;;;;;;;68.60;54.07;;;;;;;;;;4955762;29;20911;-79
2022/02/11 06:12:02;;;;;;;54.23;48.67;;;;;;;;;;4959629;29;20023;-79
2022/02/11 06:14:27;;;;;;;65.27;53.90;;;;;;;;;;4958295;28;20175;-77
2022/02/11 06:16:53;;;;;;;52.87;48.17;;;;;;;;;;4956850;28;20098;-78
2022/02/11 06:19:18;;;;;;;56.00;50.37;;;;;;;;;;4961191;29;20050;-80
2022/02/11 06:21:44;;;;;;;65.27;52.60;;;;;;;;;;4960614;28;20086;-82
2022/02/11 06:24:09;;;;;;;95.57;58.05;;;;;;;;;;4960946;29;20041;-78
2022/02/11 06:26:34;;;;;;;103.13;56.33;;;;;;;;;;4954842;29;20024;-81
2022/02/11 06:28:59;;;;;;;62.60;51.40;;;;;;;;;;4958967;28;20464;-79
2022/02/11 06:31:24;;;;;;;70.33;54.47;;;;;;;;;;4959037;28;20023;-76
2022/02/11 06:33:50;;;;;;;57.88;50.60;;;;;;;;;;4961195;28;20015;-78
2022/02/11 06:36:15;;;;;;;79.93;55.53;;;;;;;;;;4958027;29;20035;-78
2022/02/11 06:38:41;;;;;;;57.07;49.93;;;;;;;;;;4961116;29;20760;-78
2022/02/11 06:41:06;;;;;;;58.83;51.03;;;;;;;;;;4959897;29;20020;-79
2022/02/11 06:43:32;;;;;;;55.23;49.60;;;;;;;;;;4963514;29;20034;-80
2022/02/11 06:45:57;;;;;;;56.80;50.60;;;;;;;;;;4989706;28;20027;-78
2022/02/11 06:48:24;;;;;;;56.47;50.47;;;;;;;;;;4955977;28;20039;-77
2022/02/11 06:50:50;;;;;;;56.58;50.80;;;;;;;;;;4963039;29;20109;-81
2022/02/11 06:53:16;;;;;;;57.10;50.17;;;;;;;;;;4971967;28;20026;-80
2022/02/11 06:55:42;;;;;;;81.38;57.20;;;;;;;;;;4966336;28;20019;-80
2022/02/11 06:58:07;;;;;;;56.90;50.80;;;;;;;;;;4966568;28;20022;-79
2022/02/11 07:00:33;;;;;;;58.20;52.03;;;;;;;;;;4965210;29;20032;-82
2022/02/11 07:02:58;;;;;;;57.40;51.13;;;;;;;;;;4955496;29;20082;-81
2022/02/11 07:05:25;;;;;;;57.77;51.60;;;;;;;;;;4960005;28;20023;-79
2022/02/11 07:07:50;;;;;;;58.25;51.47;;;;;;;;;;4955528;29;20038;-80
2022/02/11 07:10:15;;;;;;;56.87;50.70;;;;;;;;;;4955074;29;20027;-80
2022/02/11 07:12:41;;;;;;;65.00;53.33;;;;;;;;;;4956139;29;20038;-79
2022/02/11 07:15:07;;;;;;;73.97;53.77;;;;;;;;;;4955816;29;20105;-81
2022/02/11 07:17:33;;;;;;;68.13;53.43;;;;;;;;;;4956462;28;20643;-82
2022/02/11 07:19:58;;;;;;;98.88;58.75;;;;;;;;;;4958641;29;20500;-80
2022/02/11 07:22:23;;;;;;;74.47;54.30;;;;;;;;;;4961069;29;20039;-79
2022/02/11 07:24:51;;;;;;;56.77;50.90;;;;;;;;;;4954942;29;20068;-80
2022/02/11 07:27:16;;;;;;;70.32;53.55;;;;;;;;;;4953609;29;20509;-82
2022/02/11 07:29:42;;;;;;;61.30;53.37;;;;;;;;;;4960408;29;20024;-80
2022/02/11 07:32:07;;;;;;;56.27;50.13;;;;;;;;;;4952538;29;20031;-78
2022/02/11 07:34:32;;;;;;;55.13;49.63;;;;;;;;;;4957471;29;20098;-79
2022/02/11 07:36:59;;;;;;;61.67;51.67;;;;;;;;;;4955338;29;20033;-80
2022/02/11 07:39:24;;;;;;;60.10;51.25;;;;;;;;;;4958869;29;20043;-77
2022/02/11 07:41:50;;;;;;;56.07;50.50;;;;;;;;;;4959182;28;20114;-78
2022/02/11 07:44:15;;;;;;;56.00;49.97;;;;;;;;;;4958557;29;20026;-79
2022/02/11 07:46:40;;;;;;;58.23;51.67;;;;;;;;;;4956669;28;20576;-78
2022/02/11 07:49:05;;;;;;;57.13;51.07;;;;;;;;;;4959020;29;20075;-79
2022/02/11 07:51:31;;;;;;;56.87;50.50;;;;;;;;;;4959723;29;20027;-80
2022/02/11 07:53:56;;;;;;;55.20;49.83;;;;;;;;;;4979010;28;20019;-80
2022/02/11 07:56:21;;;;;;;74.93;57.37;;;;;;;;;;4958935;29;20030;-82
2022/02/11 07:58:47;;;;;;;59.80;53.30;;;;;;;;;;4954581;29;20027;-81
2022/02/11 08:01:14;;;;;;;55.90;50.10;;;;;;;;;;4956287;29;20023;-81
2022/02/11 08:03:40;;;;;;;57.25;51.65;;;;;;;;;;4960948;29;20030;-79
2022/02/11 08:06:06;;;;;;;;;;;;;;;;;;4973759;28;20019;-79
2022/02/11 08:08:31;;;;;;;57.28;51.53;;;;;;;;;;4991055;28;19961;-82
2022/02/11 08:10:57;;;;;;;55.83;50.33;;;;;;;;;;4959914;28;20019;-80
2022/02/11 08:13:22;;;;;;;56.25;50.30;;;;;;;;;;4960550;29;20500;-80
2022/02/11 08:15:47;;;;;;;54.90;49.57;;;;;;;;;;4958631;28;20110;-82
2022/02/11 08:18:12;;;;;;;55.77;50.27;;;;;;;;;;4957717;28;20030;-81
2022/02/11 08:20:38;;;;;;;58.90;52.53;;;;;;;;;;4955217;28;20027;-80
2022/02/11 08:23:03;;;;;;;54.55;49.08;;;;;;;;;;4978041;28;20027;-83
2022/02/11 08:25:28;;;;;;;57.47;51.80;;;;;;;;;;4976942;28;20264;-84
2022/02/11 08:27:54;;;;;;;55.97;50.17;;;;;;;;;;4963062;28;20007;-83
2022/02/11 08:30:20;;;;;;;53.55;48.83;;;;;;;;;;4961396;29;20042;-82
2022/02/11 08:32:45;;;;;;;59.57;52.37;;;;;;;;;;4959044;29;20023;-83
2022/02/11 08:35:10;;;;;;;55.03;49.00;;;;;;;;;;4960941;29;20019;-82
2022/02/11 08:37:36;;;;;;;55.30;49.97;;;;;;;;;;4959944;29;20054;-82
2022/02/11 08:40:01;;;;;;;54.57;49.23;;;;;;;;;;4965289;29;20025;-84
2022/02/11 08:42:26;;;;;;;55.63;50.10;;;;;;;;;;4966946;29;20058;-85
2022/02/11 08:44:51;;;;;;;54.53;49.53;;;;;;;;;;4966191;29;20051;-85
2022/02/11 08:47:17;;;;;;;57.57;50.17;;;;;;;;;;4961229;29;20049;-84
2022/02/11 08:49:42;;;;;;;54.73;49.67;;;;;;;;;;4961612;29;20027;-85
2022/02/11 08:52:08;;;;;;;56.80;51.13;;;;;;;;;;4960126;29;20023;-83
2022/02/11 08:54:38;;;;;;;56.13;50.30;;;;;;;;;;4989309;28;20038;-84
2022/02/11 08:57:03;;;;;;;55.50;49.47;;;;;;;;;;4990659;28;20046;-85
2022/02/11 08:59:29;;;;;;;56.87;50.73;;;;;;;;;;4976117;28;20035;-82
2022/02/11 09:01:54;;;;;;;54.60;49.43;;;;;;;;;;4970017;29;20038;-79
2022/02/11 09:04:19;;;;;;;55.17;49.60;;;;;;;;;;4971708;29;20038;-78
2022/02/11 09:06:46;;;;;;;57.60;51.67;;;;;;;;;;4960115;29;20176;-79
2022/02/11 09:09:13;;;;;;;55.17;49.70;;;;;;;;;;4962299;29;20032;-78
2022/02/11 09:11:38;;;;;;;57.33;51.38;;;;;;;;;;4963461;29;20027;-76
2022/02/11 09:14:03;;;;;;;56.17;50.70;;;;;;;;;;4958061;29;20244;-78
2022/02/11 09:16:30;;;;;;;60.63;52.93;;;;;;;;;;4960043;28;20057;-78
2022/02/11 09:18:55;;;;;;;55.45;50.13;;;;;;;;;;4995986;28;20405;-78
2022/02/11 09:21:21;;;;;;;53.73;48.83;;;;;;;;;;4962228;29;20015;-79
2022/02/11 09:23:46;;;;;;;55.17;49.50;;;;;;;;;;4967141;29;20090;-78
2022/02/11 09:26:11;;;;;;;54.87;49.70;;;;;;;;;;4995504;23;20076;-90
2022/02/11 09:28:36;;;;;;;55.30;49.80;;;;;;;;;;5019836;28;20023;-88
2022/02/11 09:31:02;;;;;;;55.20;50.03;;;;;;;;;;4999970;28;20018;-89
2022/02/11 09:33:27;;;;;;;57.17;51.57;;;;;;;;;;4997571;28;20030;-87
2022/02/11 09:35:52;;;;;;;57.63;51.33;;;;;;;;;;5016568;28;20141;-88
2022/02/11 09:38:23;;;;;;;54.57;49.17;;;;;;;;;;5012388;28;20026;-87
2022/02/11 09:40:50;;;;;;;57.50;51.42;;;;;;;;;;5016184;28;20088;-88
2022/02/11 09:43:17;;;;;;;57.47;51.50;;;;;;;;;;5001508;28;20026;-88
2022/02/11 09:45:43;;;;;;;54.03;49.13;;;;;;;;;;5019702;28;20033;-89
2022/02/11 09:48:08;;;;;;;56.67;50.72;;;;;;;;;;5004907;28;20026;-88
2022/02/11 09:50:34;;;;;;;54.87;49.77;;;;;;;;;;5002630;28;20556;-88
2022/02/11 09:52:59;;;;;;;55.55;50.25;;;;;;;;;;5019971;28;20041;-89
2022/02/11 09:55:40;;;;;;;54.37;49.27;;;;;;;;;;5018302;28;20022;-88
2022/02/11 09:58:08;;;;;;;54.33;48.90;;;;;;;;;;5002893;28;20023;-88
2022/02/11 10:00:35;;;;;;;57.88;51.95;;;;;;;;;;5016199;28;20033;-89
2022/02/11 10:03:02;;;;;;;59.15;51.67;;;;;;;;;;4997921;28;20048;-87
2022/02/11 10:05:33;;;;;;;57.45;51.67;;;;;;;;;;5011505;28;20024;-89
2022/02/11 10:07:59;;;;;;;57.25;51.53;;;;;;;;;;4996968;28;20026;-88
2022/02/11 10:13:32;;;;;;;56.80;50.97;;;;;;;;;;4960304;29;20019;-89
2022/02/11 10:15:58;;;;;;;56.38;50.97;;;;;;;;;;4995992;28;20054;-88
2022/02/11 10:18:28;;;;;;;56.10;50.58;;;;;;;;;;5003005;28;20018;-89
2022/02/11 10:20:56;;;;;;;57.33;51.40;;;;;;;;;;4998961;28;20036;-88
2022/02/11 10:23:25;;;;;;;58.03;52.10;;;;;;;;;;4990702;28;20026;-89
2022/02/11 10:26:00;;;;;;;55.97;50.60;;;;;;;;;;5003916;28;20080;-90
2022/02/11 10:28:27;;;;;;;55.90;50.45;;;;;;;;;;4996882;28;20030;-89
2022/02/11 10:31:03;;;;;;;56.67;50.92;;;;;;;;;;5024135;28;20045;-90
2022/02/11 10:33:46;;;;;;;57.83;52.03;;;;;;;;;;5028524;28;20101;-90
2022/02/11 10:36:15;;;;;;;57.15;51.67;;;;;;;;;;5022747;28;20026;-90
2022/02/11 10:38:40;;;;;;;56.00;50.67;;;;;;;;;;5024214;28;20176;-89
2022/02/11 10:41:05;;;;;;;56.07;50.83;;;;;;;;;;5010877;28;20022;-89
2022/02/11 10:43:31;;;;;;;56.97;51.40;;;;;;;;;;5008913;28;20164;-89
2022/02/11 10:46:01;;;;;;;58.72;52.53;;;;;;;;;;5023967;28;20103;-89
2022/02/11 10:48:27;;;;;;;56.50;50.67;;;;;;;;;;5024217;28;20011;-89
2022/02/11 10:50:56;;;;;;;57.92;52.13;;;;;;;;;;5004727;28;20116;-89
2022/02/11 10:53:28;;;;;;;57.58;52.00;;;;;;;;;;5018362;28;20058;-90
2022/02/11 10:55:54;;;;;;;60.33;54.00;;;;;;;;;;5024082;28;20018;-90
2022/02/11 10:58:20;;;;;;;56.97;51.50;;;;;;;;;;5002283;28;20025;-90
2022/02/11 11:00:45;;;;;;;58.00;52.10;;;;;;;;;;5009537;28;20014;-90
2022/02/11 11:03:14;;;;;;;57.13;51.63;;;;;;;;;;5023565;28;20030;-90
2022/02/11 11:05:40;;;;;;;57.80;52.08;;;;;;;;;;5024733;28;20057;-90
2022/02/11 11:08:07;;;;;;;58.17;52.15;;;;;;;;;;5013194;28;20026;-90
2022/02/11 11:10:33;;;;;;;56.95;51.15;;;;;;;;;;5028971;28;20037;-91
2022/02/11 11:13:00;;;;;;;56.47;51.10;;;;;;;;;;5023372;28;20036;-89
2022/02/11 11:15:26;;;;;;;56.10;50.88;;;;;;;;;;5023448;28;20030;-90
2022/02/11 11:17:52;;;;;;;57.28;51.60;;;;;;;;;;5013602;28;20021;-90
2022/02/11 11:20:22;;;;;;;56.38;50.63;;;;;;;;;;4989389;28;20377;-91
2022/02/11 11:22:51;;;;;;;57.83;52.05;;;;;;;;;;5017685;28;20010;-91
2022/02/11 11:25:17;;;;;;;57.30;51.78;;;;;;;;;;5014073;28;20082;-90
2022/02/11 11:27:43;;;;;;;58.60;52.57;;;;;;;;;;5002362;28;20039;-89
2022/02/11 11:30:08;;;;;;;;;;;;;;;;;;5020385;28;20023;-89
2022/02/11 11:32:34;;;;;;;56.05;50.42;;;;;;;;;;5013849;28;19937;-91
2022/02/11 11:35:04;;;;;;;56.77;51.13;;;;;;;;;;5012777;28;20066;-91
2022/02/11 11:37:30;;;;;;;55.63;50.35;;;;;;;;;;5024440;28;20014;-90
2022/02/11 11:39:55;;;;;;;56.57;50.90;;;;;;;;;;5030065;28;20371;-89
2022/02/11 11:42:20;;;;;;;56.60;51.10;;;;;;;;;;5003032;28;20078;-90
2022/02/11 11:44:53;;;;;;;56.33;51.00;;;;;;;;;;5003042;28;20547;-90
2022/02/11 11:47:29;;;;;;;56.25;50.30;;;;;;;;;;5026720;28;20061;-91
2022/02/11 11:49:55;;;;;;;56.75;51.00;;;;;;;;;;5017656;28;20018;-90
2022/02/11 11:52:20;;;;;;;70.68;52.60;;;;;;;;;;5014166;23;20045;-82
2022/02/11 11:54:46;;;;;;;57.97;51.90;;;;;;;;;;4982546;28;20050;-84
2022/02/11 11:57:17;;;;;;;59.05;52.67;;;;;;;;;;4981029;28;20485;-82
2022/02/11 11:59:47;;;;;;;57.25;51.42;;;;;;;;;;4983484;28;20095;-83
2022/02/11 12:02:13;;;;;;;57.80;52.00;;;;;;;;;;4978724;28;20138;-83
2022/02/11 12:04:41;;;;;;;58.63;52.75;;;;;;;;;;4968675;28;20039;-83
2022/02/11 12:07:17;;;;;;;59.83;53.63;;;;;;;;;;4986388;28;20043;-83
2022/02/11 12:09:48;;;;;;;57.42;51.38;;;;;;;;;;4970914;28;20023;-85
2022/02/11 12:12:14;;;;;;;58.25;52.53;;;;;;;;;;4981810;28;20031;-84
2022/02/11 12:14:40;;;;;;;57.90;51.80;;;;;;;;;;4979410;28;20043;-83
2022/02/11 12:17:08;;;;;;;59.33;52.83;;;;;;;;;;4981908;28;20039;-86
2022/02/11 12:19:34;;;;;;;57.95;51.90;;;;;;;;;;4982074;28;20035;-85
2022/02/11 12:22:00;;;;;;;56.63;51.13;;;;;;;;;;4986255;28;20020;-85
2022/02/11 12:27:24;;;;;;;66.05;54.40;;;;;;;;;;4965882;29;20050;-86
2022/02/11 12:29:53;;;;;;;57.13;51.47;;;;;;;;;;4977513;28;20038;-83
2022/02/11 12:32:23;;;;;;;56.92;51.20;;;;;;;;;;4989427;28;20557;-83
2022/02/11 12:34:49;;;;;;;57.92;52.00;;;;;;;;;;4987760;28;20020;-84
2022/02/11 12:37:15;;;;;;;60.33;53.95;;;;;;;;;;4971018;28;20091;-83
2022/02/11 12:39:40;;;;;;;57.87;51.67;;;;;;;;;;4983578;28;20027;-86
2022/02/11 12:42:05;;;;;;;56.77;50.93;;;;;;;;;;4978050;28;20046;-83
2022/02/11 12:44:32;;;;;;;56.90;51.43;;;;;;;;;;4987523;28;20025;-83
2022/02/11 12:47:02;;;;;;;61.47;54.75;;;;;;;;;;4985036;28;20011;-83
2022/02/11 12:49:27;;;;;;;58.13;52.38;;;;;;;;;;4963671;29;20027;-81
2022/02/11 12:51:54;;;;;;;58.13;52.15;;;;;;;;;;4980970;28;20078;-83
2022/02/11 12:54:19;;;;;;;;;;;;;;;;;;4979588;28;20023;-82
2022/02/11 12:56:49;;;;;;;58.55;52.95;;;;;;;;;;4956881;29;19907;-81
2022/02/11 12:59:14;;;;;;;58.80;52.95;;;;;;;;;;4961195;28;20023;-82
2022/02/11 13:01:39;;;;;;;60.63;54.17;;;;;;;;;;4977686;28;20131;-82
2022/02/11 13:04:05;;;;;;;61.33;54.87;;;;;;;;;;4977267;28;20228;-82
2022/02/11 13:06:31;;;;;;;59.15;52.92;;;;;;;;;;4980035;28;20018;-82
2022/02/11 13:09:01;;;;;;;55.90;50.65;;;;;;;;;;4977988;28;20540;-78
2022/02/11 13:11:27;;;;;;;53.88;49.05;;;;;;;;;;4982132;28;20031;-81
2022/02/11 13:14:06;;;;;;;53.83;48.80;;;;;;;;;;4975991;28;20027;-81
2022/02/11 13:16:33;;;;;;;55.25;49.95;;;;;;;;;;4959705;28;20027;-81
2022/02/11 13:19:08;;;;;;;56.78;50.95;;;;;;;;;;4971198;28;20666;-81
2022/02/11 13:21:34;;;;;;;53.47;48.47;;;;;;;;;;4954097;29;20450;-80
2022/02/11 13:24:00;;;;;;;55.30;49.90;;;;;;;;;;4962559;28;20162;-82
2022/02/11 13:26:26;;;;;;;53.00;48.10;;;;;;;;;;4979365;28;20019;-81
2022/02/11 13:28:53;;;;;;;53.15;48.22;;;;;;;;;;4960088;29;20102;-79
2022/02/11 13:31:19;;;;;;;53.70;48.53;;;;;;;;;;4973267;28;20482;-79
2022/02/11 13:33:45;;;;;;;53.70;48.45;;;;;;;;;;4956732;28;20027;-80
2022/02/11 13:36:11;;;;;;;53.65;48.55;;;;;;;;;;4971871;28;20023;-79
2022/02/11 13:38:45;;;;;;;50.97;46.65;;;;;;;;;;4969036;28;20319;-80
2022/02/11 13:41:11;;;;;;;54.15;48.75;;;;;;;;;;4973858;28;20027;-80
2022/02/11 13:43:47;;;;;;;51.42;46.92;;;;;;;;;;4972580;28;20019;-80
2022/02/11 13:46:22;;;;;;;56.03;50.33;;;;;;;;;;4972472;28;20031;-79
2022/02/11 13:48:54;;;;;;;52.67;47.97;;;;;;;;;;4969929;28;20034;-80
2022/02/11 13:51:20;;;;;;;53.65;48.53;;;;;;;;;;4973509;28;20036;-81
2022/02/11 13:53:52;;;;;;;52.90;48.00;;;;;;;;;;4958895;28;20024;-80
2022/02/11 13:56:19;;;;;;;54.20;49.03;;;;;;;;;;4974156;28;20069;-82
2022/02/11 13:59:03;;;;;;;52.67;47.50;;;;;;;;;;4972183;28;20023;-80
2022/02/11 14:01:30;;;;;;;52.35;47.55;;;;;;;;;;4958845;29;20370;-79
2022/02/11 14:04:05;;;;;;;52.75;48.03;;;;;;;;;;4976104;28;20026;-78
2022/02/11 14:06:37;;;;;;;53.78;48.50;;;;;;;;;;4961940;28;20082;-79
2022/02/11 14:09:04;;;;;;;54.75;49.38;;;;;;;;;;4955655;29;20098;-82
2022/02/11 14:11:29;;;;;;;;;;;;;;;;;;4959879;29;20016;-80
2022/02/11 14:13:55;;;;;;;54.35;48.88;;;;;;;;;;4959733;28;19918;-81
2022/02/11 14:16:20;;;;;;;52.45;47.60;;;;;;;;;;4963597;29;20019;-81
2022/02/11 14:18:46;;;;;;;52.88;47.90;;;;;;;;;;4977852;28;20034;-83
2022/02/11 14:21:12;;;;;;;53.27;48.33;;;;;;;;;;4981306;28;20023;-83
2022/02/11 14:23:37;;;;;;;52.63;47.75;;;;;;;;;;4980829;28;20047;-81
2022/02/11 14:26:02;;;;;;;53.33;48.43;;;;;;;;;;4979547;28;20038;-80
2022/02/11 14:28:29;;;;;;;52.67;48.03;;;;;;;;;;4960119;28;20028;-81
2022/02/11 14:30:55;;;;;;;53.30;48.38;;;;;;;;;;4981257;28;20027;-80
2022/02/11 14:33:20;;;;;;;51.33;46.80;;;;;;;;;;4982684;28;20023;-84
2022/02/11 14:35:46;;;;;;;54.33;48.93;;;;;;;;;;4982945;28;20084;-82
2022/02/11 14:38:11;;;;;;;53.07;47.97;;;;;;;;;;4976142;28;20635;-83
2022/02/11 14:40:37;;;;;;;54.27;48.97;;;;;;;;;;4980559;28;20059;-83
2022/02/11 14:43:03;;;;;;;53.53;48.58;;;;;;;;;;4980430;28;20062;-81
2022/02/11 14:45:28;;;;;;;52.22;47.45;;;;;;;;;;4965962;28;20023;-82
2022/02/11 14:47:53;;;;;;;53.00;48.13;;;;;;;;;;4978162;28;20118;-81
2022/02/11 14:50:18;;;;;;;53.43;48.33;;;;;;;;;;4962027;29;20027;-82
2022/02/11 14:52:44;;;;;;;55.47;50.03;;;;;;;;;;4980076;28;20023;-82
2022/02/11 14:55:09;;;;;;;52.90;47.87;;;;;;;;;;4979458;28;20102;-85
2022/02/11 14:57:34;;;;;;;53.13;48.23;;;;;;;;;;4975574;28;20027;-83
2022/02/11 15:00:00;;;;;;;53.80;48.37;;;;;;;;;;4977412;28;20030;-76
2022/02/11 15:02:25;;;;;;;53.37;48.27;;;;;;;;;;4976111;28;20086;-79
2022/02/11 15:04:50;;;;;;;53.27;48.27;;;;;;;;;;4980167;28;20031;-76
2022/02/11 15:07:15;;;;;;;54.50;49.10;;;;;;;;;;4973610;28;20023;-77
2022/02/11 15:09:40;;;;;;;55.10;49.53;;;;;;;;;;4955093;29;20086;-79
2022/02/11 15:12:08;;;;;;;56.23;50.40;;;;;;;;;;4973901;28;20031;-75
2022/02/11 15:14:33;;;;;;;52.75;48.03;;;;;;;;;;4958651;28;20157;-76
2022/02/11 15:16:59;;;;;;;56.87;50.80;;;;;;;;;;4969283;28;20034;-76
2022/02/11 15:19:24;;;;;;;54.53;48.73;;;;;;;;;;4943250;29;20091;-74
2022/02/11 15:21:49;;;;;;;54.13;48.87;;;;;;;;;;4955529;29;20252;-76
2022/02/11 15:24:15;;;;;;;53.67;48.27;;;;;;;;;;4970708;28;20019;-78
2022/02/11 15:26:40;;;;;;;58.90;51.87;;;;;;;;;;4972384;28;20095;-74
2022/02/11 15:29:05;;;;;;;55.03;49.83;;;;;;;;;;4951592;28;20055;-75
2022/02/11 15:31:31;;;;;;;52.30;47.63;;;;;;;;;;4972022;28;20050;-76
2022/02/11 15:33:56;;;;;;;51.77;47.00;;;;;;;;;;4954365;28;20031;-76
2022/02/11 15:36:21;;;;;;;55.40;49.93;;;;;;;;;;4955258;28;20082;-76
2022/02/11 15:38:47;;;;;;;55.57;50.13;;;;;;;;;;4950780;28;20023;-77
2022/02/11 15:41:12;;;;;;;54.20;48.53;;;;;;;;;;4958216;28;20027;-77
2022/02/11 15:43:38;;;;;;;54.20;48.77;;;;;;;;;;4946545;28;20027;-76
2022/02/11 15:46:07;;;;;;;53.70;48.50;;;;;;;;;;4978663;28;20035;-80
2022/02/11 15:48:39;;;;;;;52.65;47.53;;;;;;;;;;4978769;28;20011;-79
2022/02/11 15:51:05;;;;;;;53.90;48.75;;;;;;;;;;4983295;28;20122;-81
2022/02/11 15:53:30;;;;;;;53.73;48.70;;;;;;;;;;4992719;28;20030;-79
2022/02/11 15:55:55;;;;;;;54.10;48.70;;;;;;;;;;4971594;28;20019;-80
2022/02/11 15:58:21;;;;;;;53.00;47.90;;;;;;;;;;4979631;28;20512;-81
2022/02/11 16:00:46;;;;;;;53.43;48.30;;;;;;;;;;4973964;28;20033;-81
2022/02/11 16:03:11;;;;;;;53.67;48.60;;;;;;;;;;4980986;28;20023;-80
2022/02/11 16:05:37;;;;;;;54.47;49.23;;;;;;;;;;4975195;28;20078;-81
2022/02/11 16:08:03;;;;;;;53.70;48.43;;;;;;;;;;4971457;28;20481;-79
2022/02/11 16:10:29;;;;;;;54.70;49.15;;;;;;;;;;4973752;28;20111;-79
2022/02/11 16:12:54;;;;;;;54.40;48.63;;;;;;;;;;4974126;28;20027;-80
2022/02/11 16:15:20;;;;;;;54.03;48.87;;;;;;;;;;4973158;28;20023;-81
2022/02/11 16:18:03;;;;;;;56.58;50.75;;;;;;;;;;4953758;29;20170;-82
2022/02/11 16:20:34;;;;;;;53.95;48.80;;;;;;;;;;4961889;28;20432;-82
2022/02/11 16:22:59;;;;;;;54.25;48.58;;;;;;;;;;4971749;28;20027;-79
2022/02/11 16:25:25;;;;;;;52.13;47.40;;;;;;;;;;4957181;28;20025;-80
2022/02/11 16:27:53;;;;;;;52.47;47.47;;;;;;;;;;4970131;28;20308;-80
2022/02/11 16:30:22;;;;;;;53.88;48.53;;;;;;;;;;4977670;28;20023;-81
2022/02/11 16:32:47;;;;;;;53.83;48.50;;;;;;;;;;4975236;28;20023;-86
2022/02/11 16:35:12;;;;;;;55.40;49.90;;;;;;;;;;4976304;28;20047;-80
2022/02/11 16:37:38;;;;;;;56.53;50.67;;;;;;;;;;4955101;28;20039;-80
2022/02/11 16:40:06;;;;;;;53.23;48.13;;;;;;;;;;4958736;29;20023;-80
2022/02/11 16:42:31;;;;;;;56.17;50.13;;;;;;;;;;4975280;28;20019;-81
2022/02/11 16:44:56;;;;;;;53.43;48.23;;;;;;;;;;4975090;28;20031;-80
2022/02/11 16:47:21;;;;;;;53.70;48.33;;;;;;;;;;4957760;28;20565;-80
2022/02/11 16:49:49;;;;;;;53.63;48.50;;;;;;;;;;4953424;29;20019;-81
2022/02/11 16:52:14;;;;;;;53.72;48.33;;;;;;;;;;4973805;28;20106;-82
2022/02/11 16:54:40;;;;;;;57.73;48.63;;;;;;;;;;4957959;28;20019;-81
2022/02/11 16:57:05;;;;;;;58.00;51.73;;;;;;;;;;4956136;29;20020;-80
2022/02/11 16:59:30;;;;;;;52.43;47.40;;;;;;;;;;4969607;28;20019;-80
2022/02/11 17:01:55;;;;;;;53.53;47.93;;;;;;;;;;4960503;29;20019;-81
2022/02/11 17:04:20;;;;;;;52.17;47.23;;;;;;;;;;4974676;28;20436;-81
2022/02/11 17:06:46;;;;;;;58.55;51.15;;;;;;;;;;4965641;28;20031;-81
2022/02/11 17:09:11;;;;;;;56.07;48.47;;;;;;;;;;4970864;28;20027;-81
2022/02/11 17:11:36;;;;;;;53.23;47.67;;;;;;;;;;4955996;29;20059;-81
2022/02/11 17:14:01;;;;;;;51.97;47.23;;;;;;;;;;4973840;28;20015;-81
2022/02/11 17:16:27;;;;;;;53.23;48.17;;;;;;;;;;4974856;28;20015;-80
2022/02/11 17:18:52;;;;;;;52.57;47.67;;;;;;;;;;4972045;28;20360;-81
2022/02/11 17:21:20;;;;;;;54.43;48.90;;;;;;;;;;4974778;28;20019;-82
2022/02/11 17:23:45;;;;;;;53.20;47.78;;;;;;;;;;4972788;28;20019;-78
2022/02/11 17:26:10;;;;;;;60.70;51.93;;;;;;;;;;4956651;28;20019;-81
2022/02/11 17:28:35;;;;;;;54.13;48.93;;;;;;;;;;4971279;28;20027;-82
2022/02/11 17:31:01;;;;;;;52.70;47.80;;;;;;;;;;4977876;28;20034;-81
2022/02/11 17:33:26;;;;;;;53.80;48.27;;;;;;;;;;4977841;28;20027;-81
2022/02/11 17:35:52;;;;;;;52.57;47.37;;;;;;;;;;4967277;29;20031;-82
2022/02/11 17:38:17;;;;;;;53.60;48.50;;;;;;;;;;4980192;28;20029;-82
2022/02/11 17:40:43;;;;;;;54.80;48.33;;;;;;;;;;4982296;28;20024;-82
2022/02/11 17:43:10;;;;;;;56.40;49.97;;;;;;;;;;4963779;28;20086;-83
2022/02/11 17:45:35;;;;;;;54.58;49.10;;;;;;;;;;4979125;28;20019;-82
2022/02/11 17:48:01;;;;;;;52.87;47.70;;;;;;;;;;4977012;28;20026;-81
2022/02/11 17:50:26;;;;;;;54.43;49.20;;;;;;;;;;4979288;28;20512;-79
2022/02/11 17:52:51;;;;;;;60.50;52.37;;;;;;;;;;4964984;28;20027;-81
2022/02/11 17:55:16;;;;;;;53.20;47.93;;;;;;;;;;4980298;28;20026;-81
2022/02/11 17:57:42;;;;;;;53.93;48.60;;;;;;;;;;4963117;29;20103;-82
2022/02/11 18:00:08;;;;;;;54.27;49.00;;;;;;;;;;4968050;29;20023;-82